OEHWJ LSZR-LIRJ
Flight info
| Callsign | OEHWJ |
|---|---|
| Flight time | 0h 52m |
| Altitude | 45000 |
| Route | BEMKI L607 XEBIX Y740 TIRUL M738 NATAG DCT RIDVA DCT GOVGO DCT XOPTA |
| Aircraft | C750/M-SBDE3FGHRWXY/S |
Departure
| Time | 2026-05-07 08:58 |
|---|---|
| Airport | Sankt Gallen Altenrhein Airport (LSZR) |
Arrival
| Time | 2026-05-07 09:50 |
|---|---|
| Airport | Marina di Campo Airport (LIRJ) |
| Time | Latitude | Longitude | Altitude | Speed | Heading |
|---|---|---|---|---|---|
| 2026-05-07 08:43 | 47.48722 | 9.55248 | 1312 ft | 0 kts | 5° |
| 2026-05-07 08:55 | 47.48724 | 9.55251 | 1312 ft | 1 kts | 26° |
| 2026-05-07 08:55 | 47.48723 | 9.55262 | 1312 ft | 2 kts | 109° |
| 2026-05-07 08:56 | 47.48712 | 9.55308 | 1312 ft | 8 kts | 109° |
| 2026-05-07 08:56 | 47.48659 | 9.55339 | 1312 ft | 12 kts | 188° |
| 2026-05-07 08:56 | 47.48587 | 9.55284 | 1313 ft | 13 kts | 259° |
| 2026-05-07 08:56 | 47.48602 | 9.55139 | 1312 ft | 15 kts | 280° |
| 2026-05-07 08:57 | 47.48612 | 9.55020 | 1312 ft | 9 kts | 264° |
| 2026-05-07 08:57 | 47.48613 | 9.54953 | 1312 ft | 4 kts | 343° |
| 2026-05-07 08:57 | 47.48620 | 9.54970 | 1312 ft | 2 kts | 78° |
| 2026-05-07 08:57 | 47.48620 | 9.54979 | 1312 ft | 0 kts | 96° |
| 2026-05-07 08:58 | 47.48611 | 9.55064 | 1312 ft | 41 kts | 98° |
| 2026-05-07 08:58 | 47.48507 | 9.56062 | 1322 ft | 141 kts | 97° |
| 2026-05-07 08:58 | 47.48355 | 9.57430 | 2205 ft | 127 kts | 97° |
| 2026-05-07 08:58 | 47.48638 | 9.58763 | 2673 ft | 161 kts | 48° |
| 2026-05-07 08:59 | 47.49688 | 9.59733 | 2919 ft | 199 kts | 14° |
| 2026-05-07 08:59 | 47.51145 | 9.60171 | 3459 ft | 223 kts | 17° |
| 2026-05-07 08:59 | 47.52440 | 9.61139 | 4987 ft | 193 kts | 23° |
| 2026-05-07 08:59 | 47.53591 | 9.61848 | 6337 ft | 172 kts | 9° |
| 2026-05-07 09:00 | 47.54797 | 9.62090 | 7115 ft | 178 kts | 357° |
| 2026-05-07 09:00 | 47.56037 | 9.62198 | 8070 ft | 178 kts | 357° |
| 2026-05-07 09:00 | 47.57277 | 9.62331 | 8940 ft | 180 kts | 358° |
| 2026-05-07 09:00 | 47.58539 | 9.62473 | 9728 ft | 183 kts | 359° |
| 2026-05-07 09:01 | 47.59825 | 9.63035 | 10099 ft | 215 kts | 28° |
| 2026-05-07 09:01 | 47.60831 | 9.64916 | 10197 ft | 255 kts | 64° |
| 2026-05-07 09:01 | 47.61390 | 9.67559 | 10461 ft | 280 kts | 75° |
| 2026-05-07 09:01 | 47.61871 | 9.70404 | 11122 ft | 286 kts | 74° |
| 2026-05-07 09:02 | 47.62378 | 9.73255 | 11843 ft | 290 kts | 80° |
| 2026-05-07 09:02 | 47.62277 | 9.76282 | 12293 ft | 302 kts | 101° |
| 2026-05-07 09:02 | 47.61781 | 9.79388 | 12440 ft | 327 kts | 105° |
| 2026-05-07 09:02 | 47.61243 | 9.82814 | 12601 ft | 355 kts | 102° |
| 2026-05-07 09:03 | 47.60846 | 9.86608 | 12840 ft | 376 kts | 98° |
| 2026-05-07 09:03 | 47.60515 | 9.90402 | 13710 ft | 376 kts | 99° |
| 2026-05-07 09:03 | 47.60084 | 9.94254 | 14398 ft | 380 kts | 101° |
| 2026-05-07 09:03 | 47.59600 | 9.98122 | 15107 ft | 384 kts | 101° |
| 2026-05-07 09:04 | 47.59155 | 10.02049 | 15824 ft | 388 kts | 100° |
| 2026-05-07 09:04 | 47.58737 | 10.06016 | 16538 ft | 392 kts | 100° |
| 2026-05-07 09:04 | 47.58292 | 10.10016 | 17269 ft | 396 kts | 101° |
| 2026-05-07 09:04 | 47.57820 | 10.14054 | 18012 ft | 400 kts | 101° |
| 2026-05-07 09:05 | 47.57410 | 10.17612 | 18658 ft | 404 kts | 101° |
| 2026-05-07 09:05 | 47.56941 | 10.21790 | 19373 ft | 408 kts | 101° |
| 2026-05-07 09:05 | 47.56402 | 10.25935 | 20008 ft | 411 kts | 107° |
| 2026-05-07 09:05 | 47.55227 | 10.29783 | 20658 ft | 412 kts | 122° |
| 2026-05-07 09:06 | 47.53462 | 10.33093 | 21349 ft | 412 kts | 137° |
| 2026-05-07 09:06 | 47.51223 | 10.35761 | 22019 ft | 412 kts | 146° |
| 2026-05-07 09:06 | 47.48892 | 10.38280 | 22690 ft | 416 kts | 146° |
| 2026-05-07 09:06 | 47.46511 | 10.40866 | 23327 ft | 421 kts | 145° |
| 2026-05-07 09:07 | 47.44158 | 10.43453 | 23905 ft | 424 kts | 145° |
| 2026-05-07 09:07 | 47.41715 | 10.45920 | 24425 ft | 426 kts | 153° |
| 2026-05-07 09:07 | 47.38997 | 10.47628 | 25032 ft | 424 kts | 164° |
| 2026-05-07 09:07 | 47.36109 | 10.48553 | 25612 ft | 424 kts | 175° |
| 2026-05-07 09:08 | 47.34165 | 10.48830 | 26020 ft | 425 kts | 177° |
| 2026-05-07 09:08 | 47.31210 | 10.49230 | 26615 ft | 428 kts | 176° |
| 2026-05-07 09:08 | 47.28226 | 10.49666 | 27211 ft | 431 kts | 176° |
| 2026-05-07 09:08 | 47.25238 | 10.50108 | 27834 ft | 434 kts | 176° |
| 2026-05-07 09:09 | 47.22214 | 10.50533 | 28381 ft | 438 kts | 177° |
| 2026-05-07 09:09 | 47.19177 | 10.50955 | 29019 ft | 440 kts | 177° |
| 2026-05-07 09:09 | 47.16111 | 10.51392 | 29608 ft | 444 kts | 177° |
| 2026-05-07 09:09 | 47.13018 | 10.51838 | 30184 ft | 447 kts | 177° |
| 2026-05-07 09:10 | 47.09918 | 10.52278 | 30691 ft | 449 kts | 177° |
| 2026-05-07 09:10 | 47.06797 | 10.52754 | 31264 ft | 451 kts | 175° |
| 2026-05-07 09:10 | 47.03731 | 10.53765 | 31985 ft | 453 kts | 167° |
| 2026-05-07 09:10 | 47.00760 | 10.55130 | 32680 ft | 451 kts | 166° |
| 2026-05-07 09:11 | 46.97766 | 10.56489 | 33412 ft | 449 kts | 167° |
| 2026-05-07 09:11 | 46.94736 | 10.57839 | 34146 ft | 447 kts | 167° |
| 2026-05-07 09:11 | 46.91719 | 10.59196 | 34704 ft | 448 kts | 167° |
| 2026-05-07 09:11 | 46.88734 | 10.60553 | 35256 ft | 448 kts | 166° |
| 2026-05-07 09:12 | 46.85721 | 10.61622 | 35768 ft | 445 kts | 174° |
| 2026-05-07 09:12 | 46.82648 | 10.61952 | 36310 ft | 441 kts | 182° |
| 2026-05-07 09:12 | 46.79579 | 10.61952 | 36859 ft | 441 kts | 183° |
| 2026-05-07 09:12 | 46.76508 | 10.61985 | 37394 ft | 442 kts | 182° |
| 2026-05-07 09:13 | 46.73389 | 10.62055 | 37932 ft | 443 kts | 182° |
| 2026-05-07 09:13 | 46.70307 | 10.62110 | 38487 ft | 443 kts | 182° |
| 2026-05-07 09:13 | 46.67218 | 10.62140 | 38957 ft | 444 kts | 183° |
| 2026-05-07 09:13 | 46.64129 | 10.62176 | 39412 ft | 444 kts | 182° |
| 2026-05-07 09:14 | 46.61032 | 10.62226 | 39866 ft | 445 kts | 182° |
| 2026-05-07 09:14 | 46.57934 | 10.62276 | 40317 ft | 445 kts | 182° |
| 2026-05-07 09:14 | 46.54835 | 10.62317 | 40769 ft | 445 kts | 183° |
| 2026-05-07 09:14 | 46.51740 | 10.62357 | 41257 ft | 445 kts | 183° |
| 2026-05-07 09:15 | 46.48640 | 10.62402 | 41724 ft | 445 kts | 182° |
| 2026-05-07 09:15 | 46.45545 | 10.62447 | 42165 ft | 445 kts | 183° |
| 2026-05-07 09:15 | 46.42440 | 10.62491 | 42580 ft | 445 kts | 183° |
| 2026-05-07 09:15 | 46.39340 | 10.62533 | 43035 ft | 445 kts | 183° |
| 2026-05-07 09:16 | 46.36246 | 10.62577 | 43456 ft | 444 kts | 183° |
| 2026-05-07 09:16 | 46.33141 | 10.62622 | 43841 ft | 445 kts | 183° |
| 2026-05-07 09:16 | 46.30038 | 10.62664 | 44241 ft | 445 kts | 183° |
| 2026-05-07 09:16 | 46.26938 | 10.62708 | 44671 ft | 445 kts | 183° |
| 2026-05-07 09:17 | 46.23842 | 10.62751 | 45020 ft | 446 kts | 183° |
| 2026-05-07 09:17 | 46.20702 | 10.62792 | 44988 ft | 455 kts | 183° |
| 2026-05-07 09:17 | 46.14245 | 10.62883 | 44997 ft | 472 kts | 183° |
| 2026-05-07 09:18 | 46.07599 | 10.62977 | 44996 ft | 481 kts | 183° |
| 2026-05-07 09:18 | 46.00811 | 10.63071 | 45005 ft | 488 kts | 183° |
| 2026-05-07 09:19 | 45.93972 | 10.63166 | 45004 ft | 493 kts | 183° |
| 2026-05-07 09:19 | 45.87087 | 10.63261 | 44995 ft | 497 kts | 183° |
| 2026-05-07 09:20 | 45.80058 | 10.63359 | 44994 ft | 497 kts | 183° |
| 2026-05-07 09:20 | 45.73087 | 10.63455 | 44989 ft | 497 kts | 183° |
| 2026-05-07 09:21 | 45.66115 | 10.63550 | 44984 ft | 497 kts | 183° |
| 2026-05-07 09:21 | 45.59242 | 10.63645 | 44985 ft | 496 kts | 183° |
| 2026-05-07 09:22 | 45.52339 | 10.63738 | 44987 ft | 494 kts | 183° |
| 2026-05-07 09:22 | 45.45458 | 10.63832 | 44988 ft | 493 kts | 183° |
| 2026-05-07 09:23 | 45.38587 | 10.63925 | 44984 ft | 493 kts | 183° |
| 2026-05-07 09:23 | 45.31724 | 10.64018 | 44991 ft | 493 kts | 183° |
| 2026-05-07 09:24 | 45.24859 | 10.64111 | 44985 ft | 493 kts | 183° |
| 2026-05-07 09:24 | 45.18010 | 10.64202 | 44989 ft | 492 kts | 183° |
| 2026-05-07 09:25 | 45.11238 | 10.63364 | 45004 ft | 488 kts | 190° |
| 2026-05-07 09:25 | 45.04491 | 10.62292 | 45010 ft | 488 kts | 189° |
| 2026-05-07 09:26 | 44.97731 | 10.61221 | 45006 ft | 489 kts | 190° |
| 2026-05-07 09:26 | 44.90910 | 10.60133 | 45002 ft | 490 kts | 190° |
| 2026-05-07 09:27 | 44.84132 | 10.59066 | 45000 ft | 490 kts | 190° |
| 2026-05-07 09:28 | 44.73956 | 10.57458 | 44999 ft | 489 kts | 190° |
| 2026-05-07 09:28 | 44.70592 | 10.56931 | 44621 ft | 487 kts | 190° |
| 2026-05-07 09:28 | 44.67223 | 10.56399 | 43948 ft | 484 kts | 190° |
| 2026-05-07 09:28 | 44.63886 | 10.55875 | 43306 ft | 479 kts | 190° |
| 2026-05-07 09:29 | 44.60599 | 10.55361 | 42684 ft | 474 kts | 190° |
| 2026-05-07 09:29 | 44.58398 | 10.54948 | 42252 ft | 469 kts | 193° |
| 2026-05-07 09:29 | 44.55247 | 10.53896 | 41917 ft | 455 kts | 199° |
| 2026-05-07 09:29 | 44.52250 | 10.52609 | 41311 ft | 449 kts | 201° |
| 2026-05-07 09:30 | 44.49289 | 10.51289 | 40733 ft | 445 kts | 200° |
| 2026-05-07 09:30 | 44.46297 | 10.50214 | 40159 ft | 442 kts | 197° |
| 2026-05-07 09:30 | 44.43302 | 10.49286 | 39583 ft | 438 kts | 197° |
| 2026-05-07 09:30 | 44.40368 | 10.48254 | 39011 ft | 434 kts | 199° |
| 2026-05-07 09:31 | 44.37468 | 10.47128 | 38387 ft | 430 kts | 199° |
| 2026-05-07 09:31 | 44.34595 | 10.46067 | 37825 ft | 424 kts | 198° |
| 2026-05-07 09:31 | 44.31747 | 10.45088 | 37271 ft | 419 kts | 198° |
| 2026-05-07 09:31 | 44.28917 | 10.44096 | 36721 ft | 416 kts | 199° |
| 2026-05-07 09:32 | 44.26122 | 10.43074 | 36181 ft | 414 kts | 200° |
| 2026-05-07 09:32 | 44.23336 | 10.42060 | 35627 ft | 413 kts | 200° |
| 2026-05-07 09:32 | 44.20563 | 10.41077 | 35088 ft | 411 kts | 200° |
| 2026-05-07 09:32 | 44.17796 | 10.40101 | 34555 ft | 409 kts | 200° |
| 2026-05-07 09:33 | 44.15042 | 10.39115 | 34067 ft | 406 kts | 200° |
| 2026-05-07 09:33 | 44.12348 | 10.38151 | 33916 ft | 398 kts | 200° |
| 2026-05-07 09:33 | 44.09645 | 10.37181 | 33293 ft | 404 kts | 200° |
| 2026-05-07 09:33 | 44.06918 | 10.36213 | 32727 ft | 404 kts | 200° |
| 2026-05-07 09:34 | 44.04202 | 10.35253 | 32171 ft | 402 kts | 200° |
| 2026-05-07 09:34 | 44.01494 | 10.34294 | 30885 ft | 407 kts | 200° |
| 2026-05-07 09:34 | 43.98692 | 10.33285 | 29374 ft | 415 kts | 200° |
| 2026-05-07 09:34 | 43.95916 | 10.32310 | 27981 ft | 408 kts | 199° |
| 2026-05-07 09:35 | 43.93166 | 10.31344 | 27075 ft | 404 kts | 199° |
| 2026-05-07 09:35 | 43.90481 | 10.30393 | 26760 ft | 397 kts | 199° |
| 2026-05-07 09:35 | 43.87800 | 10.29437 | 26233 ft | 400 kts | 199° |
| 2026-05-07 09:35 | 43.85084 | 10.28473 | 25695 ft | 405 kts | 199° |
| 2026-05-07 09:36 | 43.82340 | 10.27509 | 25155 ft | 409 kts | 199° |
| 2026-05-07 09:36 | 43.79574 | 10.26538 | 24600 ft | 411 kts | 199° |
| 2026-05-07 09:36 | 43.76791 | 10.25557 | 24060 ft | 413 kts | 199° |
| 2026-05-07 09:36 | 43.73998 | 10.24573 | 23487 ft | 415 kts | 199° |
| 2026-05-07 09:37 | 43.71195 | 10.23590 | 22927 ft | 414 kts | 199° |
| 2026-05-07 09:37 | 43.68405 | 10.22613 | 22404 ft | 413 kts | 198° |
| 2026-05-07 09:37 | 43.65625 | 10.21637 | 21879 ft | 411 kts | 198° |
| 2026-05-07 09:37 | 43.62862 | 10.20668 | 21354 ft | 409 kts | 198° |
| 2026-05-07 09:38 | 43.60106 | 10.19703 | 20834 ft | 407 kts | 198° |
| 2026-05-07 09:38 | 43.57364 | 10.18744 | 20318 ft | 406 kts | 198° |
| 2026-05-07 09:38 | 43.54632 | 10.17790 | 19805 ft | 404 kts | 198° |
| 2026-05-07 09:38 | 43.51934 | 10.16848 | 19299 ft | 403 kts | 198° |
| 2026-05-07 09:39 | 43.49218 | 10.15901 | 18787 ft | 401 kts | 198° |
| 2026-05-07 09:39 | 43.46521 | 10.14962 | 18270 ft | 397 kts | 197° |
| 2026-05-07 09:39 | 43.43866 | 10.14040 | 17762 ft | 390 kts | 197° |
| 2026-05-07 09:39 | 43.41256 | 10.13133 | 17286 ft | 383 kts | 197° |
| 2026-05-07 09:40 | 43.38687 | 10.12238 | 16817 ft | 378 kts | 197° |
| 2026-05-07 09:40 | 43.36155 | 10.11359 | 16348 ft | 373 kts | 197° |
| 2026-05-07 09:40 | 43.33654 | 10.10491 | 15886 ft | 369 kts | 197° |
| 2026-05-07 09:40 | 43.31168 | 10.09629 | 15423 ft | 367 kts | 197° |
| 2026-05-07 09:41 | 43.28690 | 10.08769 | 14946 ft | 369 kts | 197° |
| 2026-05-07 09:41 | 43.26230 | 10.07921 | 14460 ft | 366 kts | 196° |
| 2026-05-07 09:41 | 43.23706 | 10.07703 | 13822 ft | 364 kts | 177° |
| 2026-05-07 09:41 | 43.21248 | 10.08420 | 12835 ft | 362 kts | 168° |
| 2026-05-07 09:42 | 43.18837 | 10.09348 | 11949 ft | 357 kts | 166° |
| 2026-05-07 09:42 | 43.16473 | 10.10239 | 11584 ft | 344 kts | 167° |
| 2026-05-07 09:42 | 43.14174 | 10.11053 | 10877 ft | 346 kts | 168° |
| 2026-05-07 09:42 | 43.11836 | 10.11879 | 10349 ft | 348 kts | 167° |
| 2026-05-07 09:43 | 43.09518 | 10.12725 | 9932 ft | 344 kts | 167° |
| 2026-05-07 09:43 | 43.07209 | 10.13570 | 9455 ft | 341 kts | 167° |
| 2026-05-07 09:43 | 43.04921 | 10.14395 | 9003 ft | 339 kts | 167° |
| 2026-05-07 09:43 | 43.02612 | 10.15225 | 8548 ft | 336 kts | 167° |
| 2026-05-07 09:44 | 43.00366 | 10.16036 | 8100 ft | 334 kts | 167° |
| 2026-05-07 09:44 | 42.98150 | 10.16839 | 7668 ft | 320 kts | 167° |
| 2026-05-07 09:44 | 42.96076 | 10.17590 | 7256 ft | 298 kts | 167° |
| 2026-05-07 09:44 | 42.94060 | 10.18314 | 6862 ft | 287 kts | 167° |
| 2026-05-07 09:45 | 42.92129 | 10.19024 | 6474 ft | 291 kts | 165° |
| 2026-05-07 09:45 | 42.90208 | 10.19804 | 6084 ft | 287 kts | 164° |
| 2026-05-07 09:45 | 42.88272 | 10.20626 | 5762 ft | 293 kts | 163° |
| 2026-05-07 09:45 | 42.86349 | 10.21539 | 5560 ft | 285 kts | 161° |
| 2026-05-07 09:46 | 42.84584 | 10.22555 | 5203 ft | 270 kts | 153° |
| 2026-05-07 09:46 | 42.83013 | 10.23907 | 4715 ft | 264 kts | 145° |
| 2026-05-07 09:46 | 42.81544 | 10.25369 | 4207 ft | 259 kts | 144° |
| 2026-05-07 09:46 | 42.80095 | 10.26826 | 3606 ft | 258 kts | 144° |
| 2026-05-07 09:47 | 42.78573 | 10.28094 | 3157 ft | 253 kts | 151° |
| 2026-05-07 09:47 | 42.77039 | 10.29154 | 2792 ft | 239 kts | 153° |
| 2026-05-07 09:47 | 42.75597 | 10.30134 | 2339 ft | 226 kts | 153° |
| 2026-05-07 09:47 | 42.74231 | 10.31018 | 1675 ft | 203 kts | 155° |
| 2026-05-07 09:48 | 42.72975 | 10.31308 | 1252 ft | 173 kts | 186° |
| 2026-05-07 09:48 | 42.71944 | 10.30649 | 938 ft | 157 kts | 223° |
| 2026-05-07 09:48 | 42.71511 | 10.29388 | 853 ft | 142 kts | 263° |
| 2026-05-07 09:48 | 42.71660 | 10.28108 | 849 ft | 137 kts | 292° |
| 2026-05-07 09:49 | 42.72105 | 10.26923 | 859 ft | 147 kts | 302° |
| 2026-05-07 09:49 | 42.72725 | 10.25815 | 826 ft | 146 kts | 316° |
| 2026-05-07 09:49 | 42.73581 | 10.25125 | 600 ft | 143 kts | 340° |
| 2026-05-07 09:49 | 42.74508 | 10.24690 | 364 ft | 138 kts | 343° |
| 2026-05-07 09:50 | 42.75386 | 10.24300 | 118 ft | 128 kts | 343° |
| 2026-05-07 09:50 | 42.76164 | 10.23946 | 18 ft | 90 kts | 341° |
| 2026-05-07 09:50 | 42.76485 | 10.23808 | 19 ft | 16 kts | 342° |
| 2026-05-07 09:50 | 42.76532 | 10.23790 | 17 ft | 1 kts | 273° |
| 2026-05-07 09:51 | 42.76492 | 10.23800 | 17 ft | 12 kts | 158° |
| 2026-05-07 09:51 | 42.76415 | 10.23837 | 18 ft | 12 kts | 162° |
| 2026-05-07 09:51 | 42.76351 | 10.23854 | 16 ft | 7 kts | 205° |
| 2026-05-07 09:51 | 42.76336 | 10.23817 | 15 ft | 3 kts | 251° |
| 2026-05-07 09:52 | 42.76332 | 10.23802 | 15 ft | 1 kts | 232° |
| 2026-05-07 09:52 | 42.76320 | 10.23800 | 15 ft | 2 kts | 161° |
| 2026-05-07 09:52 | 42.76299 | 10.23807 | 15 ft | 2 kts | 197° |
| 2026-05-07 09:52 | 42.76292 | 10.23790 | 15 ft | 2 kts | 254° |
| 2026-05-07 09:53 | 42.76295 | 10.23777 | 15 ft | 2 kts | 307° |
| 2026-05-07 09:53 | 42.76296 | 10.23773 | 15 ft | 0 kts | 295° |